sensor_id;sensor_type;location;lat;lon;timestamp;P1;durP1;ratioP1;P2;durP2;ratioP2
6434;SDS011;3250;42.694;23.278;2023-03-15T00:01:00;32.23;;;15.23;;
6434;SDS011;3250;42.694;23.278;2023-03-15T00:03:32;32.40;;;15.47;;
6434;SDS011;3250;42.694;23.278;2023-03-15T00:06:01;25.90;;;13.37;;
6434;SDS011;3250;42.694;23.278;2023-03-15T00:08:28;31.80;;;14.63;;
6434;SDS011;3250;42.694;23.278;2023-03-15T00:10:53;34.33;;;15.23;;
6434;SDS011;3250;42.694;23.278;2023-03-15T00:13:19;36.37;;;14.17;;
6434;SDS011;3250;42.694;23.278;2023-03-15T00:15:45;33.47;;;15.70;;
6434;SDS011;3250;42.694;23.278;2023-03-15T00:18:13;29.57;;;14.97;;
6434;SDS011;3250;42.694;23.278;2023-03-15T00:20:39;28.67;;;13.03;;
6434;SDS011;3250;42.694;23.278;2023-03-15T00:23:04;29.90;;;13.07;;
6434;SDS011;3250;42.694;23.278;2023-03-15T00:25:30;20.60;;;10.30;;
6434;SDS011;3250;42.694;23.278;2023-03-15T00:27:55;22.13;;;10.50;;
6434;SDS011;3250;42.694;23.278;2023-03-15T00:30:21;18.20;;;9.93;;
6434;SDS011;3250;42.694;23.278;2023-03-15T00:32:46;19.03;;;9.50;;
6434;SDS011;3250;42.694;23.278;2023-03-15T00:35:12;15.80;;;8.70;;
6434;SDS011;3250;42.694;23.278;2023-03-15T00:37:37;15.67;;;8.90;;
6434;SDS011;3250;42.694;23.278;2023-03-15T00:40:03;18.10;;;9.20;;
6434;SDS011;3250;42.694;23.278;2023-03-15T00:42:31;19.40;;;9.90;;
6434;SDS011;3250;42.694;23.278;2023-03-15T00:44:57;22.20;;;10.70;;
6434;SDS011;3250;42.694;23.278;2023-03-15T00:47:24;26.50;;;11.37;;
6434;SDS011;3250;42.694;23.278;2023-03-15T00:49:50;21.60;;;10.43;;
6434;SDS011;3250;42.694;23.278;2023-03-15T00:52:16;22.13;;;10.83;;
6434;SDS011;3250;42.694;23.278;2023-03-15T00:54:42;21.93;;;12.33;;
6434;SDS011;3250;42.694;23.278;2023-03-15T00:57:08;19.23;;;10.80;;
6434;SDS011;3250;42.694;23.278;2023-03-15T00:59:33;16.63;;;9.17;;
6434;SDS011;3250;42.694;23.278;2023-03-15T01:02:00;15.63;;;8.80;;
6434;SDS011;3250;42.694;23.278;2023-03-15T01:04:26;17.57;;;8.90;;
6434;SDS011;3250;42.694;23.278;2023-03-15T01:06:51;21.10;;;11.17;;
6434;SDS011;3250;42.694;23.278;2023-03-15T01:09:17;20.57;;;9.53;;
6434;SDS011;3250;42.694;23.278;2023-03-15T01:11:42;22.60;;;10.20;;
6434;SDS011;3250;42.694;23.278;2023-03-15T01:14:07;16.20;;;9.30;;
6434;SDS011;3250;42.694;23.278;2023-03-15T01:16:34;18.20;;;8.80;;
6434;SDS011;3250;42.694;23.278;2023-03-15T01:19:00;14.53;;;7.70;;
6434;SDS011;3250;42.694;23.278;2023-03-15T01:21:25;20.73;;;9.93;;
6434;SDS011;3250;42.694;23.278;2023-03-15T01:23:52;18.47;;;10.13;;
6434;SDS011;3250;42.694;23.278;2023-03-15T01:26:18;17.40;;;8.77;;
6434;SDS011;3250;42.694;23.278;2023-03-15T01:28:45;14.17;;;7.97;;
6434;SDS011;3250;42.694;23.278;2023-03-15T01:31:16;13.43;;;7.47;;
6434;SDS011;3250;42.694;23.278;2023-03-15T01:33:43;12.97;;;7.23;;
6434;SDS011;3250;42.694;23.278;2023-03-15T01:36:09;18.43;;;7.30;;
6434;SDS011;3250;42.694;23.278;2023-03-15T01:38:36;17.30;;;7.40;;
6434;SDS011;3250;42.694;23.278;2023-03-15T01:41:01;13.10;;;8.17;;
6434;SDS011;3250;42.694;23.278;2023-03-15T01:43:28;11.80;;;7.53;;
6434;SDS011;3250;42.694;23.278;2023-03-15T01:50:59;20.83;;;9.90;;
6434;SDS011;3250;42.694;23.278;2023-03-15T01:53:27;20.97;;;10.20;;
6434;SDS011;3250;42.694;23.278;2023-03-15T01:55:55;27.40;;;12.33;;
6434;SDS011;3250;42.694;23.278;2023-03-15T01:58:22;29.30;;;12.77;;
6434;SDS011;3250;42.694;23.278;2023-03-15T02:00:51;24.63;;;11.10;;
6434;SDS011;3250;42.694;23.278;2023-03-15T02:03:17;26.43;;;11.03;;
6434;SDS011;3250;42.694;23.278;2023-03-15T02:05:51;27.60;;;11.33;;
6434;SDS011;3250;42.694;23.278;2023-03-15T02:08:20;22.13;;;11.27;;
6434;SDS011;3250;42.694;23.278;2023-03-15T02:10:50;24.83;;;10.60;;
6434;SDS011;3250;42.694;23.278;2023-03-15T02:13:18;19.03;;;9.87;;
6434;SDS011;3250;42.694;23.278;2023-03-15T02:15:47;21.43;;;10.37;;
6434;SDS011;3250;42.694;23.278;2023-03-15T02:18:14;16.70;;;8.80;;
6434;SDS011;3250;42.694;23.278;2023-03-15T02:20:43;17.20;;;8.33;;
6434;SDS011;3250;42.694;23.278;2023-03-15T02:23:24;15.07;;;8.30;;
6434;SDS011;3250;42.694;23.278;2023-03-15T02:28:38;16.93;;;9.40;;
6434;SDS011;3250;42.694;23.278;2023-03-15T02:31:04;23.40;;;9.90;;
6434;SDS011;3250;42.694;23.278;2023-03-15T02:33:43;23.80;;;12.60;;
6434;SDS011;3250;42.694;23.278;2023-03-15T02:36:24;25.33;;;12.10;;
6434;SDS011;3250;42.694;23.278;2023-03-15T02:38:51;24.83;;;11.40;;
6434;SDS011;3250;42.694;23.278;2023-03-15T02:41:22;25.90;;;11.40;;
6434;SDS011;3250;42.694;23.278;2023-03-15T02:43:50;30.33;;;12.00;;
6434;SDS011;3250;42.694;23.278;2023-03-15T02:46:19;22.70;;;10.90;;
6434;SDS011;3250;42.694;23.278;2023-03-15T02:48:46;23.27;;;11.17;;
6434;SDS011;3250;42.694;23.278;2023-03-15T02:51:18;18.52;;;9.80;;
6434;SDS011;3250;42.694;23.278;2023-03-15T02:53:45;23.13;;;9.93;;
6434;SDS011;3250;42.694;23.278;2023-03-15T02:56:11;21.63;;;7.90;;
6434;SDS011;3250;42.694;23.278;2023-03-15T02:58:38;17.30;;;8.77;;
6434;SDS011;3250;42.694;23.278;2023-03-15T03:01:04;20.67;;;9.43;;
6434;SDS011;3250;42.694;23.278;2023-03-15T03:03:29;16.27;;;8.57;;
6434;SDS011;3250;42.694;23.278;2023-03-15T03:05:54;21.50;;;9.07;;
6434;SDS011;3250;42.694;23.278;2023-03-15T03:08:20;19.20;;;10.17;;
6434;SDS011;3250;42.694;23.278;2023-03-15T03:10:45;18.90;;;8.53;;
6434;SDS011;3250;42.694;23.278;2023-03-15T03:13:11;14.97;;;8.50;;
6434;SDS011;3250;42.694;23.278;2023-03-15T03:15:36;23.07;;;12.47;;
6434;SDS011;3250;42.694;23.278;2023-03-15T03:18:02;28.50;;;14.33;;
6434;SDS011;3250;42.694;23.278;2023-03-15T03:20:27;29.30;;;14.80;;
6434;SDS011;3250;42.694;23.278;2023-03-15T03:22:52;29.57;;;14.40;;
6434;SDS011;3250;42.694;23.278;2023-03-15T03:25:20;26.73;;;13.40;;
6434;SDS011;3250;42.694;23.278;2023-03-15T03:27:46;29.07;;;14.53;;
6434;SDS011;3250;42.694;23.278;2023-03-15T03:30:12;36.93;;;15.00;;
6434;SDS011;3250;42.694;23.278;2023-03-15T03:32:38;24.40;;;14.37;;
6434;SDS011;3250;42.694;23.278;2023-03-15T03:35:04;29.77;;;15.63;;
6434;SDS011;3250;42.694;23.278;2023-03-15T03:37:30;28.93;;;15.20;;
6434;SDS011;3250;42.694;23.278;2023-03-15T03:39:56;29.33;;;14.57;;
6434;SDS011;3250;42.694;23.278;2023-03-15T03:42:22;29.65;;;16.98;;
6434;SDS011;3250;42.694;23.278;2023-03-15T03:44:47;21.33;;;13.67;;
6434;SDS011;3250;42.694;23.278;2023-03-15T03:47:14;33.47;;;15.27;;
6434;SDS011;3250;42.694;23.278;2023-03-15T03:49:40;31.70;;;16.07;;
6434;SDS011;3250;42.694;23.278;2023-03-15T03:52:05;28.37;;;13.80;;
6434;SDS011;3250;42.694;23.278;2023-03-15T03:54:30;29.50;;;15.03;;
6434;SDS011;3250;42.694;23.278;2023-03-15T03:56:56;34.67;;;16.03;;
6434;SDS011;3250;42.694;23.278;2023-03-15T03:59:22;39.17;;;20.23;;
6434;SDS011;3250;42.694;23.278;2023-03-15T04:01:47;49.30;;;20.50;;
6434;SDS011;3250;42.694;23.278;2023-03-15T04:04:12;55.70;;;25.87;;
6434;SDS011;3250;42.694;23.278;2023-03-15T04:06:41;54.03;;;24.27;;
6434;SDS011;3250;42.694;23.278;2023-03-15T04:09:10;47.05;;;22.85;;
6434;SDS011;3250;42.694;23.278;2023-03-15T04:11:37;50.37;;;22.97;;
6434;SDS011;3250;42.694;23.278;2023-03-15T04:14:09;60.03;;;25.03;;
6434;SDS011;3250;42.694;23.278;2023-03-15T04:16:36;51.20;;;25.63;;
6434;SDS011;3250;42.694;23.278;2023-03-15T04:19:01;50.60;;;23.13;;
6434;SDS011;3250;42.694;23.278;2023-03-15T04:21:27;49.00;;;26.33;;
6434;SDS011;3250;42.694;23.278;2023-03-15T04:23:56;49.43;;;24.33;;
6434;SDS011;3250;42.694;23.278;2023-03-15T04:26:25;58.10;;;22.97;;
6434;SDS011;3250;42.694;23.278;2023-03-15T04:28:54;45.60;;;23.37;;
6434;SDS011;3250;42.694;23.278;2023-03-15T04:31:21;48.63;;;23.50;;
6434;SDS011;3250;42.694;23.278;2023-03-15T04:33:51;46.00;;;25.20;;
6434;SDS011;3250;42.694;23.278;2023-03-15T04:36:18;45.60;;;21.93;;
6434;SDS011;3250;42.694;23.278;2023-03-15T04:38:43;43.00;;;22.77;;
6434;SDS011;3250;42.694;23.278;2023-03-15T04:41:11;41.67;;;20.53;;
6434;SDS011;3250;42.694;23.278;2023-03-15T04:43:38;53.33;;;24.87;;
6434;SDS011;3250;42.694;23.278;2023-03-15T04:46:03;49.70;;;23.17;;
6434;SDS011;3250;42.694;23.278;2023-03-15T04:48:29;46.10;;;23.57;;
6434;SDS011;3250;42.694;23.278;2023-03-15T04:50:55;39.37;;;19.77;;
6434;SDS011;3250;42.694;23.278;2023-03-15T04:53:21;47.43;;;20.63;;
6434;SDS011;3250;42.694;23.278;2023-03-15T04:55:46;37.35;;;17.48;;
6434;SDS011;3250;42.694;23.278;2023-03-15T04:58:11;27.95;;;14.77;;
6434;SDS011;3250;42.694;23.278;2023-03-15T05:00:37;39.93;;;18.10;;
6434;SDS011;3250;42.694;23.278;2023-03-15T05:03:02;25.63;;;14.63;;
6434;SDS011;3250;42.694;23.278;2023-03-15T05:05:28;23.47;;;9.77;;
6434;SDS011;3250;42.694;23.278;2023-03-15T05:07:56;24.00;;;8.77;;
6434;SDS011;3250;42.694;23.278;2023-03-15T05:10:21;25.90;;;11.80;;
6434;SDS011;3250;42.694;23.278;2023-03-15T05:12:47;25.23;;;13.97;;
6434;SDS011;3250;42.694;23.278;2023-03-15T05:15:12;29.00;;;14.17;;
6434;SDS011;3250;42.694;23.278;2023-03-15T05:17:37;29.47;;;15.10;;
6434;SDS011;3250;42.694;23.278;2023-03-15T05:20:03;27.10;;;12.97;;
6434;SDS011;3250;42.694;23.278;2023-03-15T05:22:35;26.77;;;13.00;;
6434;SDS011;3250;42.694;23.278;2023-03-15T05:25:01;28.83;;;14.40;;
6434;SDS011;3250;42.694;23.278;2023-03-15T05:27:27;30.70;;;16.00;;
6434;SDS011;3250;42.694;23.278;2023-03-15T05:29:53;34.43;;;15.83;;
6434;SDS011;3250;42.694;23.278;2023-03-15T05:32:18;24.23;;;12.50;;
6434;SDS011;3250;42.694;23.278;2023-03-15T05:34:43;32.63;;;14.43;;
6434;SDS011;3250;42.694;23.278;2023-03-15T05:37:09;31.47;;;13.23;;
6434;SDS011;3250;42.694;23.278;2023-03-15T05:39:36;27.33;;;14.23;;
6434;SDS011;3250;42.694;23.278;2023-03-15T05:42:01;39.87;;;15.50;;
6434;SDS011;3250;42.694;23.278;2023-03-15T05:44:27;33.90;;;16.57;;
6434;SDS011;3250;42.694;23.278;2023-03-15T05:46:52;36.17;;;15.90;;
6434;SDS011;3250;42.694;23.278;2023-03-15T05:49:18;27.40;;;13.07;;
6434;SDS011;3250;42.694;23.278;2023-03-15T05:51:43;20.07;;;9.10;;
6434;SDS011;3250;42.694;23.278;2023-03-15T05:54:09;13.60;;;6.07;;
6434;SDS011;3250;42.694;23.278;2023-03-15T05:56:34;12.40;;;5.20;;
6434;SDS011;3250;42.694;23.278;2023-03-15T05:59:00;8.27;;;4.50;;
6434;SDS011;3250;42.694;23.278;2023-03-15T06:01:27;10.90;;;4.63;;
6434;SDS011;3250;42.694;23.278;2023-03-15T06:03:52;7.33;;;4.23;;
6434;SDS011;3250;42.694;23.278;2023-03-15T06:06:18;8.70;;;3.80;;
6434;SDS011;3250;42.694;23.278;2023-03-15T06:08:43;10.47;;;4.50;;
6434;SDS011;3250;42.694;23.278;2023-03-15T06:11:08;11.63;;;3.80;;
6434;SDS011;3250;42.694;23.278;2023-03-15T06:13:34;10.73;;;3.67;;
6434;SDS011;3250;42.694;23.278;2023-03-15T06:15:59;8.43;;;3.90;;
6434;SDS011;3250;42.694;23.278;2023-03-15T06:18:24;9.97;;;3.20;;
6434;SDS011;3250;42.694;23.278;2023-03-15T06:20:50;12.10;;;3.70;;
6434;SDS011;3250;42.694;23.278;2023-03-15T06:23:15;5.60;;;3.57;;
6434;SDS011;3250;42.694;23.278;2023-03-15T06:25:41;7.50;;;3.20;;
6434;SDS011;3250;42.694;23.278;2023-03-15T06:28:06;7.83;;;3.60;;
6434;SDS011;3250;42.694;23.278;2023-03-15T06:30:32;6.17;;;3.53;;
6434;SDS011;3250;42.694;23.278;2023-03-15T06:32:57;8.43;;;3.70;;
6434;SDS011;3250;42.694;23.278;2023-03-15T06:35:23;8.43;;;4.00;;
6434;SDS011;3250;42.694;23.278;2023-03-15T06:37:48;7.93;;;3.83;;
6434;SDS011;3250;42.694;23.278;2023-03-15T06:40:13;5.10;;;3.33;;
6434;SDS011;3250;42.694;23.278;2023-03-15T06:42:39;7.47;;;3.57;;
6434;SDS011;3250;42.694;23.278;2023-03-15T06:45:06;7.30;;;3.97;;
6434;SDS011;3250;42.694;23.278;2023-03-15T06:47:32;14.43;;;3.63;;
6434;SDS011;3250;42.694;23.278;2023-03-15T06:49:58;6.40;;;3.60;;
6434;SDS011;3250;42.694;23.278;2023-03-15T06:52:23;7.27;;;3.50;;
6434;SDS011;3250;42.694;23.278;2023-03-15T06:54:49;7.05;;;3.50;;
6434;SDS011;3250;42.694;23.278;2023-03-15T06:57:14;13.40;;;3.70;;
6434;SDS011;3250;42.694;23.278;2023-03-15T06:59:40;7.55;;;3.35;;
6434;SDS011;3250;42.694;23.278;2023-03-15T07:02:06;7.40;;;4.00;;
6434;SDS011;3250;42.694;23.278;2023-03-15T07:04:37;7.80;;;3.67;;
6434;SDS011;3250;42.694;23.278;2023-03-15T07:07:02;6.82;;;3.70;;
6434;SDS011;3250;42.694;23.278;2023-03-15T07:09:28;7.85;;;4.30;;
6434;SDS011;3250;42.694;23.278;2023-03-15T07:11:53;9.15;;;4.82;;
6434;SDS011;3250;42.694;23.278;2023-03-15T07:14:19;9.35;;;4.28;;
6434;SDS011;3250;42.694;23.278;2023-03-15T07:16:46;8.57;;;4.00;;
6434;SDS011;3250;42.694;23.278;2023-03-15T07:19:12;7.88;;;4.00;;
6434;SDS011;3250;42.694;23.278;2023-03-15T07:21:37;7.57;;;4.22;;
6434;SDS011;3250;42.694;23.278;2023-03-15T07:24:02;8.25;;;4.95;;
6434;SDS011;3250;42.694;23.278;2023-03-15T07:26:28;8.32;;;4.07;;
6434;SDS011;3250;42.694;23.278;2023-03-15T07:28:55;8.93;;;4.60;;
6434;SDS011;3250;42.694;23.278;2023-03-15T07:31:20;7.63;;;4.65;;
6434;SDS011;3250;42.694;23.278;2023-03-15T07:33:46;11.43;;;4.43;;
6434;SDS011;3250;42.694;23.278;2023-03-15T07:36:13;5.88;;;4.18;;
6434;SDS011;3250;42.694;23.278;2023-03-15T07:38:38;12.52;;;4.75;;
6434;SDS011;3250;42.694;23.278;2023-03-15T07:41:04;12.45;;;4.47;;
6434;SDS011;3250;42.694;23.278;2023-03-15T07:43:30;11.95;;;5.03;;
6434;SDS011;3250;42.694;23.278;2023-03-15T07:45:56;9.45;;;5.38;;
6434;SDS011;3250;42.694;23.278;2023-03-15T07:48:21;9.27;;;4.80;;
6434;SDS011;3250;42.694;23.278;2023-03-15T07:50:47;7.13;;;3.90;;
6434;SDS011;3250;42.694;23.278;2023-03-15T07:53:12;8.02;;;3.80;;
6434;SDS011;3250;42.694;23.278;2023-03-15T07:55:38;7.07;;;4.32;;
6434;SDS011;3250;42.694;23.278;2023-03-15T07:58:03;18.52;;;4.20;;
6434;SDS011;3250;42.694;23.278;2023-03-15T08:00:30;6.03;;;4.50;;
6434;SDS011;3250;42.694;23.278;2023-03-15T08:02:56;7.75;;;4.50;;
6434;SDS011;3250;42.694;23.278;2023-03-15T08:05:21;7.88;;;4.20;;
6434;SDS011;3250;42.694;23.278;2023-03-15T08:07:48;8.25;;;3.78;;
6434;SDS011;3250;42.694;23.278;2023-03-15T08:10:14;8.43;;;4.15;;
6434;SDS011;3250;42.694;23.278;2023-03-15T08:12:40;9.82;;;3.75;;
6434;SDS011;3250;42.694;23.278;2023-03-15T08:15:10;11.85;;;2.97;;
6434;SDS011;3250;42.694;23.278;2023-03-15T08:17:42;3.85;;;3.13;;
6434;SDS011;3250;42.694;23.278;2023-03-15T08:20:08;6.45;;;3.20;;
6434;SDS011;3250;42.694;23.278;2023-03-15T08:22:36;5.35;;;3.28;;
6434;SDS011;3250;42.694;23.278;2023-03-15T08:25:03;5.25;;;3.35;;
6434;SDS011;3250;42.694;23.278;2023-03-15T08:27:29;5.97;;;3.58;;
6434;SDS011;3250;42.694;23.278;2023-03-15T08:29:54;7.15;;;3.08;;
6434;SDS011;3250;42.694;23.278;2023-03-15T08:32:20;4.82;;;3.10;;
6434;SDS011;3250;42.694;23.278;2023-03-15T08:34:46;3.13;;;2.80;;
6434;SDS011;3250;42.694;23.278;2023-03-15T08:37:11;6.47;;;3.33;;
6434;SDS011;3250;42.694;23.278;2023-03-15T08:39:37;6.63;;;3.13;;
6434;SDS011;3250;42.694;23.278;2023-03-15T08:42:03;5.15;;;3.42;;
6434;SDS011;3250;42.694;23.278;2023-03-15T08:44:29;7.75;;;3.25;;
6434;SDS011;3250;42.694;23.278;2023-03-15T08:46:56;6.68;;;3.05;;
6434;SDS011;3250;42.694;23.278;2023-03-15T08:49:22;5.68;;;3.20;;
6434;SDS011;3250;42.694;23.278;2023-03-15T08:51:47;4.40;;;3.22;;
6434;SDS011;3250;42.694;23.278;2023-03-15T08:54:13;5.53;;;3.33;;
6434;SDS011;3250;42.694;23.278;2023-03-15T08:56:39;10.38;;;3.33;;
6434;SDS011;3250;42.694;23.278;2023-03-15T08:59:05;7.05;;;3.72;;
6434;SDS011;3250;42.694;23.278;2023-03-15T09:01:31;11.68;;;5.22;;
6434;SDS011;3250;42.694;23.278;2023-03-15T09:03:58;9.23;;;3.13;;
6434;SDS011;3250;42.694;23.278;2023-03-15T09:06:25;10.85;;;3.80;;
6434;SDS011;3250;42.694;23.278;2023-03-15T09:08:51;5.38;;;3.30;;
6434;SDS011;3250;42.694;23.278;2023-03-15T09:11:18;8.37;;;3.43;;
6434;SDS011;3250;42.694;23.278;2023-03-15T09:13:43;9.10;;;3.75;;
6434;SDS011;3250;42.694;23.278;2023-03-15T09:16:09;6.43;;;3.43;;
6434;SDS011;3250;42.694;23.278;2023-03-15T09:18:34;9.97;;;3.90;;
6434;SDS011;3250;42.694;23.278;2023-03-15T09:20:59;7.20;;;4.23;;
6434;SDS011;3250;42.694;23.278;2023-03-15T09:23:25;7.30;;;4.93;;
6434;SDS011;3250;42.694;23.278;2023-03-15T09:25:51;6.87;;;3.37;;
6434;SDS011;3250;42.694;23.278;2023-03-15T09:28:16;12.40;;;3.83;;
6434;SDS011;3250;42.694;23.278;2023-03-15T09:30:42;8.80;;;3.80;;
6434;SDS011;3250;42.694;23.278;2023-03-15T09:33:07;10.87;;;3.57;;
6434;SDS011;3250;42.694;23.278;2023-03-15T09:35:33;6.50;;;3.37;;
6434;SDS011;3250;42.694;23.278;2023-03-15T09:37:59;10.43;;;4.03;;
6434;SDS011;3250;42.694;23.278;2023-03-15T09:40:25;8.03;;;3.73;;
6434;SDS011;3250;42.694;23.278;2023-03-15T09:42:58;7.23;;;3.77;;
6434;SDS011;3250;42.694;23.278;2023-03-15T09:53:55;9.63;;;4.03;;
6434;SDS011;3250;42.694;23.278;2023-03-15T09:59:39;5.87;;;3.57;;
6434;SDS011;3250;42.694;23.278;2023-03-15T10:02:14;10.37;;;4.13;;
6434;SDS011;3250;42.694;23.278;2023-03-15T10:04:46;5.20;;;3.40;;
6434;SDS011;3250;42.694;23.278;2023-03-15T10:07:14;8.60;;;3.70;;
6434;SDS011;3250;42.694;23.278;2023-03-15T10:09:40;8.70;;;3.63;;
6434;SDS011;3250;42.694;23.278;2023-03-15T10:17:20;5.50;;;3.13;;
6434;SDS011;3250;42.694;23.278;2023-03-15T10:19:58;11.13;;;4.87;;
6434;SDS011;3250;42.694;23.278;2023-03-15T10:22:29;4.97;;;3.33;;
6434;SDS011;3250;42.694;23.278;2023-03-15T10:25:03;5.90;;;3.57;;
6434;SDS011;3250;42.694;23.278;2023-03-15T10:27:36;6.90;;;3.30;;
6434;SDS011;3250;42.694;23.278;2023-03-15T10:30:22;6.30;;;3.27;;
6434;SDS011;3250;42.694;23.278;2023-03-15T10:32:57;5.97;;;3.67;;
6434;SDS011;3250;42.694;23.278;2023-03-15T10:35:26;13.07;;;4.20;;
6434;SDS011;3250;42.694;23.278;2023-03-15T10:37:52;10.60;;;3.47;;
6434;SDS011;3250;42.694;23.278;2023-03-15T10:43:16;9.07;;;3.67;;
6434;SDS011;3250;42.694;23.278;2023-03-15T10:48:24;5.70;;;3.30;;
6434;SDS011;3250;42.694;23.278;2023-03-15T10:51:03;7.20;;;3.20;;
6434;SDS011;3250;42.694;23.278;2023-03-15T10:56:34;8.00;;;3.37;;
6434;SDS011;3250;42.694;23.278;2023-03-15T10:59:13;5.27;;;3.40;;
6434;SDS011;3250;42.694;23.278;2023-03-15T11:01:41;7.67;;;3.20;;
6434;SDS011;3250;42.694;23.278;2023-03-15T11:06:39;9.53;;;3.47;;
6434;SDS011;3250;42.694;23.278;2023-03-15T11:09:10;5.70;;;3.33;;
6434;SDS011;3250;42.694;23.278;2023-03-15T11:14:22;7.07;;;3.53;;
6434;SDS011;3250;42.694;23.278;2023-03-15T11:16:53;6.03;;;3.53;;
6434;SDS011;3250;42.694;23.278;2023-03-15T11:19:21;11.80;;;3.83;;
6434;SDS011;3250;42.694;23.278;2023-03-15T11:21:50;10.90;;;3.67;;
6434;SDS011;3250;42.694;23.278;2023-03-15T11:24:21;11.00;;;3.50;;
6434;SDS011;3250;42.694;23.278;2023-03-15T11:26:49;7.93;;;3.33;;
6434;SDS011;3250;42.694;23.278;2023-03-15T11:29:22;10.17;;;3.73;;
6434;SDS011;3250;42.694;23.278;2023-03-15T11:31:57;7.60;;;3.97;;
6434;SDS011;3250;42.694;23.278;2023-03-15T11:34:41;7.30;;;3.70;;
6434;SDS011;3250;42.694;23.278;2023-03-15T11:37:19;8.40;;;4.27;;
6434;SDS011;3250;42.694;23.278;2023-03-15T11:39:52;12.00;;;3.83;;
6434;SDS011;3250;42.694;23.278;2023-03-15T11:42:27;8.30;;;3.67;;
6434;SDS011;3250;42.694;23.278;2023-03-15T11:45:00;6.27;;;3.53;;
6434;SDS011;3250;42.694;23.278;2023-03-15T11:47:37;3.90;;;2.90;;
6434;SDS011;3250;42.694;23.278;2023-03-15T11:50:13;16.97;;;3.10;;
6434;SDS011;3250;42.694;23.278;2023-03-15T11:52:39;8.80;;;3.90;;
6434;SDS011;3250;42.694;23.278;2023-03-15T11:55:13;10.80;;;4.30;;
6434;SDS011;3250;42.694;23.278;2023-03-15T11:57:45;8.87;;;4.83;;
6434;SDS011;3250;42.694;23.278;2023-03-15T12:08:44;5.57;;;2.67;;
6434;SDS011;3250;42.694;23.278;2023-03-15T12:11:10;5.83;;;2.80;;
6434;SDS011;3250;42.694;23.278;2023-03-15T12:13:49;5.00;;;2.63;;
6434;SDS011;3250;42.694;23.278;2023-03-15T12:16:41;9.17;;;4.27;;
6434;SDS011;3250;42.694;23.278;2023-03-15T12:19:14;52.50;;;20.70;;
6434;SDS011;3250;42.694;23.278;2023-03-15T12:21:52;20.37;;;7.30;;
6434;SDS011;3250;42.694;23.278;2023-03-15T12:24:25;15.93;;;5.83;;
6434;SDS011;3250;42.694;23.278;2023-03-15T12:29:42;9.90;;;4.77;;
6434;SDS011;3250;42.694;23.278;2023-03-15T12:32:18;9.53;;;5.17;;
6434;SDS011;3250;42.694;23.278;2023-03-15T12:34:48;9.73;;;4.97;;
6434;SDS011;3250;42.694;23.278;2023-03-15T12:40:01;7.87;;;5.17;;
6434;SDS011;3250;42.694;23.278;2023-03-15T12:48:24;17.23;;;7.03;;
6434;SDS011;3250;42.694;23.278;2023-03-15T12:55:36;8.77;;;4.90;;
6434;SDS011;3250;42.694;23.278;2023-03-15T12:58:02;13.37;;;4.53;;
6434;SDS011;3250;42.694;23.278;2023-03-15T13:00:28;7.53;;;2.53;;
6434;SDS011;3250;42.694;23.278;2023-03-15T13:19:48;3.57;;;2.43;;
6434;SDS011;3250;42.694;23.278;2023-03-15T13:22:43;5.47;;;2.90;;
6434;SDS011;3250;42.694;23.278;2023-03-15T13:26:05;3.70;;;2.30;;
6434;SDS011;3250;42.694;23.278;2023-03-15T13:28:30;11.03;;;2.80;;
6434;SDS011;3250;42.694;23.278;2023-03-15T13:31:10;5.60;;;2.70;;
6434;SDS011;3250;42.694;23.278;2023-03-15T13:33:41;12.50;;;3.63;;
6434;SDS011;3250;42.694;23.278;2023-03-15T13:36:11;10.03;;;3.20;;
6434;SDS011;3250;42.694;23.278;2023-03-15T13:38:40;9.40;;;2.90;;
6434;SDS011;3250;42.694;23.278;2023-03-15T13:43:59;4.70;;;3.00;;
6434;SDS011;3250;42.694;23.278;2023-03-15T13:46:28;5.20;;;3.10;;
6434;SDS011;3250;42.694;23.278;2023-03-15T13:48:56;7.97;;;5.30;;
6434;SDS011;3250;42.694;23.278;2023-03-15T13:53:55;4.43;;;2.33;;
6434;SDS011;3250;42.694;23.278;2023-03-15T13:56:28;8.10;;;4.40;;
6434;SDS011;3250;42.694;23.278;2023-03-15T13:58:56;7.23;;;2.80;;
6434;SDS011;3250;42.694;23.278;2023-03-15T14:01:22;6.77;;;2.57;;
6434;SDS011;3250;42.694;23.278;2023-03-15T14:03:59;8.93;;;2.77;;
6434;SDS011;3250;42.694;23.278;2023-03-15T14:06:29;8.80;;;2.50;;
6434;SDS011;3250;42.694;23.278;2023-03-15T14:08:59;4.17;;;2.13;;
6434;SDS011;3250;42.694;23.278;2023-03-15T14:11:32;4.23;;;3.00;;
6434;SDS011;3250;42.694;23.278;2023-03-15T14:14:01;6.87;;;3.20;;
6434;SDS011;3250;42.694;23.278;2023-03-15T14:16:42;6.87;;;2.23;;
6434;SDS011;3250;42.694;23.278;2023-03-15T14:21:59;5.87;;;2.80;;
6434;SDS011;3250;42.694;23.278;2023-03-15T14:24:37;7.27;;;2.70;;
6434;SDS011;3250;42.694;23.278;2023-03-15T14:27:06;10.80;;;3.10;;
6434;SDS011;3250;42.694;23.278;2023-03-15T14:29:42;8.67;;;3.20;;
6434;SDS011;3250;42.694;23.278;2023-03-15T14:32:24;5.73;;;2.60;;
6434;SDS011;3250;42.694;23.278;2023-03-15T14:35:01;6.23;;;2.70;;
6434;SDS011;3250;42.694;23.278;2023-03-15T14:42:47;8.73;;;3.00;;
6434;SDS011;3250;42.694;23.278;2023-03-15T14:45:14;8.13;;;3.07;;
6434;SDS011;3250;42.694;23.278;2023-03-15T14:47:48;2.77;;;2.13;;
6434;SDS011;3250;42.694;23.278;2023-03-15T14:50:17;9.20;;;3.60;;
6434;SDS011;3250;42.694;23.278;2023-03-15T14:52:45;6.73;;;3.47;;
6434;SDS011;3250;42.694;23.278;2023-03-15T14:55:14;9.20;;;3.07;;
6434;SDS011;3250;42.694;23.278;2023-03-15T14:57:43;7.10;;;2.93;;
6434;SDS011;3250;42.694;23.278;2023-03-15T15:00:12;13.87;;;3.70;;
6434;SDS011;3250;42.694;23.278;2023-03-15T15:02:42;13.67;;;4.03;;
6434;SDS011;3250;42.694;23.278;2023-03-15T15:05:15;10.00;;;3.80;;
6434;SDS011;3250;42.694;23.278;2023-03-15T15:07:45;8.40;;;3.80;;
6434;SDS011;3250;42.694;23.278;2023-03-15T15:10:12;9.80;;;4.07;;
6434;SDS011;3250;42.694;23.278;2023-03-15T15:12:37;9.37;;;3.70;;
6434;SDS011;3250;42.694;23.278;2023-03-15T15:15:11;8.40;;;4.23;;
6434;SDS011;3250;42.694;23.278;2023-03-15T15:17:41;8.40;;;3.80;;
6434;SDS011;3250;42.694;23.278;2023-03-15T15:20:07;9.40;;;3.87;;
6434;SDS011;3250;42.694;23.278;2023-03-15T15:22:35;12.10;;;4.70;;
6434;SDS011;3250;42.694;23.278;2023-03-15T15:25:02;12.67;;;4.77;;
6434;SDS011;3250;42.694;23.278;2023-03-15T15:27:37;8.10;;;3.78;;
6434;SDS011;3250;42.694;23.278;2023-03-15T15:30:02;8.13;;;3.53;;
6434;SDS011;3250;42.694;23.278;2023-03-15T15:32:29;14.15;;;5.28;;
6434;SDS011;3250;42.694;23.278;2023-03-15T15:34:57;14.88;;;6.25;;
6434;SDS011;3250;42.694;23.278;2023-03-15T15:37:23;11.60;;;5.38;;
6434;SDS011;3250;42.694;23.278;2023-03-15T15:39:48;17.90;;;7.43;;
6434;SDS011;3250;42.694;23.278;2023-03-15T15:42:14;17.90;;;7.37;;
6434;SDS011;3250;42.694;23.278;2023-03-15T15:44:39;11.40;;;5.78;;
6434;SDS011;3250;42.694;23.278;2023-03-15T15:47:05;8.30;;;4.50;;
6434;SDS011;3250;42.694;23.278;2023-03-15T15:49:31;8.07;;;4.53;;
6434;SDS011;3250;42.694;23.278;2023-03-15T15:51:56;8.73;;;4.78;;
6434;SDS011;3250;42.694;23.278;2023-03-15T15:54:25;4.60;;;2.70;;
6434;SDS011;3250;42.694;23.278;2023-03-15T15:56:57;6.45;;;3.45;;
6434;SDS011;3250;42.694;23.278;2023-03-15T15:59:24;7.68;;;3.33;;
6434;SDS011;3250;42.694;23.278;2023-03-15T16:01:51;7.75;;;3.67;;
6434;SDS011;3250;42.694;23.278;2023-03-15T16:04:17;6.97;;;4.45;;
6434;SDS011;3250;42.694;23.278;2023-03-15T16:06:44;9.80;;;4.30;;
6434;SDS011;3250;42.694;23.278;2023-03-15T16:09:12;7.43;;;4.63;;
6434;SDS011;3250;42.694;23.278;2023-03-15T16:11:37;8.33;;;3.80;;
6434;SDS011;3250;42.694;23.278;2023-03-15T16:14:04;10.57;;;5.37;;
6434;SDS011;3250;42.694;23.278;2023-03-15T16:16:29;12.32;;;6.30;;
6434;SDS011;3250;42.694;23.278;2023-03-15T16:18:55;13.85;;;7.80;;
6434;SDS011;3250;42.694;23.278;2023-03-15T16:21:37;12.13;;;6.60;;
6434;SDS011;3250;42.694;23.278;2023-03-15T16:26:37;9.85;;;5.43;;
6434;SDS011;3250;42.694;23.278;2023-03-15T16:29:22;11.90;;;4.73;;
6434;SDS011;3250;42.694;23.278;2023-03-15T16:31:51;8.45;;;4.97;;